createdAt,value
2022-08-30T00:01:14.192Z,100775.44
2022-08-30T00:06:20.937Z,100778.97
2022-08-30T00:11:24.948Z,100784.63
2022-08-30T00:16:28.041Z,100799.41
2022-08-30T00:21:32.911Z,100792.81
2022-08-30T00:26:35.821Z,100790.66
2022-08-30T00:31:39.151Z,100799.63
2022-08-30T00:36:43.440Z,100791.06
2022-08-30T00:41:46.767Z,100797.44
2022-08-30T00:46:49.465Z,100792.16
2022-08-30T00:51:53.504Z,100789.56
2022-08-30T00:56:56.150Z,100808.84
2022-08-30T01:01:59.121Z,100801.47
2022-08-30T01:07:03.324Z,100802.13
2022-08-30T01:12:06.358Z,100797.34
2022-08-30T01:17:09.213Z,100808.59
2022-08-30T01:22:20.954Z,100807.56
2022-08-30T01:27:25.035Z,100798.03
2022-08-30T01:32:29.789Z,100807.00
2022-08-30T01:37:33.201Z,100821.47
2022-08-30T01:42:37.533Z,100820.53
2022-08-30T01:47:40.617Z,100811.59
2022-08-30T01:52:43.429Z,100806.00
2022-08-30T01:57:49.734Z,100805.88
2022-08-30T02:02:52.738Z,100813.28
2022-08-30T02:07:55.467Z,100821.38
2022-08-30T02:13:00.445Z,100824.88
2022-08-30T02:18:03.150Z,100820.75
2022-08-30T02:23:05.823Z,100814.34
2022-08-30T02:28:09.924Z,100808.19
2022-08-30T02:33:12.704Z,100803.56
2022-08-30T02:38:15.407Z,100798.03
2022-08-30T02:43:24.103Z,100798.03
2022-08-30T02:48:26.805Z,100801.13
2022-08-30T02:53:29.594Z,100808.00
2022-08-30T02:58:33.792Z,100794.13
2022-08-30T03:03:36.838Z,100799.63
2022-08-30T03:08:39.598Z,100788.34
2022-08-30T03:13:43.888Z,100783.47
2022-08-30T03:18:46.588Z,100782.13
2022-08-30T03:23:49.290Z,100789.84
2022-08-30T03:28:53.422Z,100788.88
2022-08-30T03:33:56.235Z,100789.13
2022-08-30T03:38:59.041Z,100776.69
2022-08-30T03:44:04.540Z,100781.91
2022-08-30T03:49:09.413Z,100793.47
2022-08-30T03:54:12.111Z,100795.03
2022-08-30T03:59:16.466Z,100798.47
2022-08-30T04:04:21.134Z,100800.88
2022-08-30T04:09:24.797Z,100800.88
2022-08-30T04:14:28.927Z,100802.72
2022-08-30T04:19:31.662Z,100805.44
2022-08-30T04:24:34.898Z,100809.09
2022-08-30T04:29:39.057Z,100812.78
2022-08-30T04:34:42.085Z,100809.09
2022-08-30T04:39:46.215Z,100817.19
2022-08-30T04:44:50.948Z,100825.28
2022-08-30T04:49:53.889Z,100819.16
2022-08-30T04:54:56.683Z,100821.75
2022-08-30T05:00:00.809Z,100832.41
2022-08-30T05:05:21.272Z,100833.25
2022-08-30T05:10:24.095Z,100843.03
2022-08-30T05:15:28.154Z,100844.88
2022-08-30T05:20:30.955Z,100843.94
2022-08-30T05:25:35.142Z,100851.91
2022-08-30T05:30:39.346Z,100860.72
2022-08-30T05:35:42.222Z,100866.94
2022-08-30T05:40:45.182Z,100877.75
2022-08-30T05:45:49.645Z,100872.09
2022-08-30T05:50:52.365Z,100869.38
2022-08-30T05:55:55.180Z,100857.75
2022-08-30T06:00:59.239Z,100870.88
2022-08-30T06:06:02.392Z,100862.63
2022-08-30T06:11:05.299Z,100856.25
2022-08-30T06:16:09.562Z,100859.69
2022-08-30T06:21:17.379Z,100867.63
2022-08-30T06:26:20.290Z,100864.09
2022-08-30T06:31:25.041Z,100870.22
2022-08-30T06:36:27.808Z,100873.66
2022-08-30T06:41:31.911Z,100875.22
2022-08-30T06:46:38.509Z,100885.88
2022-08-30T06:51:42.062Z,100880.34
2022-08-30T06:56:58.222Z,100885.63
2022-08-30T07:02:03.104Z,100887.22
2022-08-30T07:07:06.130Z,100884.41
2022-08-30T07:12:09.600Z,100890.66
2022-08-30T07:17:34.565Z,100875.06
2022-08-30T07:22:37.662Z,100887.56
2022-08-30T07:27:40.396Z,100891.13
2022-08-30T07:32:44.455Z,100887.31
2022-08-30T07:37:47.189Z,100890.88
2022-08-30T07:42:49.878Z,100896.84
2022-08-30T07:47:53.970Z,100903.81
2022-08-30T07:52:56.784Z,100899.19
2022-08-30T07:57:59.516Z,100901.63
2022-08-30T08:03:07.810Z,100899.66
2022-08-30T08:08:10.909Z,100899.81
2022-08-30T08:13:13.759Z,100896.84
2022-08-30T08:18:18.031Z,100897.59
2022-08-30T08:23:21.703Z,100902.84
2022-08-30T08:28:24.678Z,100906.28
2022-08-30T08:33:28.731Z,100908.69
2022-08-30T08:38:31.895Z,100907.84
2022-08-30T08:43:36.587Z,100901.34
2022-08-30T08:48:58.930Z,100914.56
2022-08-30T08:54:03.645Z,100903.78
2022-08-30T08:59:08.346Z,100908.91
2022-08-30T09:04:14.153Z,100903.38
2022-08-30T09:09:17.545Z,100910.47
2022-08-30T09:14:21.692Z,100901.41
2022-08-30T09:19:41.060Z,100911.94
2022-08-30T09:24:45.228Z,100902.13
2022-08-30T09:29:52.371Z,100905.69
2022-08-30T09:34:57.126Z,100898.19
2022-08-30T09:39:59.961Z,100898.78
2022-08-30T09:45:12.690Z,100887.00
2022-08-30T09:50:17.785Z,100884.28
2022-08-30T09:55:27.074Z,100884.28
2022-08-30T10:00:32.438Z,100881.78
2022-08-30T10:05:40.998Z,100885.06
2022-08-30T10:10:47.804Z,100879.81
2022-08-30T10:15:52.120Z,100877.13
2022-08-30T10:20:59.161Z,100881.00
2022-08-30T10:26:07.513Z,100868.06
2022-08-30T10:31:12.241Z,100864.09
2022-08-30T10:36:16.510Z,100862.38
2022-08-30T10:41:24.896Z,100857.00
2022-08-30T10:46:31.033Z,100849.50
2022-08-30T10:51:41.401Z,100856.75
2022-08-30T10:56:44.318Z,100849.22
2022-08-30T11:02:01.503Z,100846.38
2022-08-30T11:07:10.818Z,100849.94
2022-08-30T11:12:36.485Z,100844.53
2022-08-30T11:17:46.329Z,100846.09
2022-08-30T11:23:33.047Z,100846.00
2022-08-30T11:29:03.063Z,100848.28
2022-08-30T11:34:06.385Z,100847.72
2022-08-30T11:39:09.755Z,100845.88
2022-08-30T11:44:27.261Z,100832.41
2022-08-30T11:49:55.847Z,100838.84
2022-08-30T11:55:22.529Z,100837.28
2022-08-30T12:00:34.194Z,100843.69
2022-08-30T12:05:59.017Z,100835.31
2022-08-30T12:11:03.662Z,100825.78
2022-08-30T12:16:09.372Z,100830.03
2022-08-30T12:21:28.175Z,100828.22
2022-08-30T12:26:33.788Z,100821.41
2022-08-30T12:31:42.022Z,100818.69
2022-08-30T12:36:52.499Z,100817.69
2022-08-30T12:41:55.402Z,100814.28
2022-08-30T12:47:01.880Z,100808.88
2022-08-30T12:52:19.566Z,100796.91
2022-08-30T12:57:38.625Z,100795.91
2022-08-30T13:02:47.690Z,100790.97
2022-08-30T13:07:51.372Z,100784.84
2022-08-30T13:12:59.907Z,100785.00
2022-08-30T13:18:18.791Z,100787.69
2022-08-30T13:23:29.532Z,100787.38
2022-08-30T13:28:32.503Z,100791.06
2022-08-30T13:33:36.649Z,100786.53
2022-08-30T13:38:39.582Z,100786.94
2022-08-30T13:54:42.252Z,100777.28
2022-08-30T13:59:45.004Z,100779.00
2022-08-30T14:04:57.693Z,100783.09
2022-08-30T14:15:26.644Z,100773.66
2022-08-30T14:20:30.682Z,100776.66
2022-08-30T14:25:34.121Z,100782.63
2022-08-30T14:30:36.871Z,100786.75
2022-08-30T14:35:42.389Z,100781.91
2022-08-30T14:40:45.127Z,100782.72
2022-08-30T14:45:47.916Z,100784.16
2022-08-30T14:50:52.236Z,100775.81
2022-08-30T14:55:55.035Z,100769.69
2022-08-30T15:00:58.069Z,100774.81
2022-08-30T15:06:02.146Z,100767.44
2022-08-30T15:11:09.566Z,100762.59
2022-08-30T15:16:13.172Z,100758.91
2022-08-30T15:21:23.517Z,100757.13
2022-08-30T15:26:29.036Z,100753.25
2022-08-30T15:31:32.199Z,100757.53
2022-08-30T15:36:37.049Z,100757.97
2022-08-30T15:41:40.610Z,100753.53
2022-08-30T15:46:47.373Z,100760.56
2022-08-30T15:51:54.097Z,100748.88
2022-08-30T15:56:59.976Z,100746.03
2022-08-30T16:02:02.913Z,100743.81
2022-08-30T16:07:07.500Z,100741.72
2022-08-30T16:12:10.744Z,100736.16
2022-08-30T16:17:14.182Z,100728.78
2022-08-30T16:22:21.982Z,100722.75
2022-08-30T16:27:25.115Z,100722.03
2022-08-30T16:32:27.901Z,100717.91
2022-08-30T16:37:32.053Z,100726.03
2022-08-30T16:42:35.030Z,100723.16
2022-08-30T16:47:37.744Z,100717.28
2022-08-30T16:52:44.312Z,100710.63
2022-08-30T16:57:47.173Z,100711.78
2022-08-30T17:02:54.039Z,100716.63
2022-08-30T17:07:58.452Z,100717.19
2022-08-30T17:13:01.255Z,100715.75
2022-08-30T17:18:04.040Z,100721.75
2022-08-30T17:23:08.764Z,100724.16
2022-08-30T17:28:11.534Z,100721.16
2022-08-30T17:33:15.004Z,100725.28
2022-08-30T17:38:21.887Z,100727.00
2022-08-30T17:43:24.773Z,100718.31
2022-08-30T17:48:27.524Z,100721.47
2022-08-30T17:53:32.104Z,100731.72
2022-08-30T17:58:35.064Z,100733.56
2022-08-30T18:03:37.991Z,100735.56
2022-08-30T18:08:42.545Z,100745.41
2022-08-30T18:13:45.379Z,100752.38
2022-08-30T18:18:55.630Z,100755.78
2022-08-30T18:24:01.575Z,100764.78
2022-08-30T18:29:04.788Z,100762.22
2022-08-30T18:34:12.248Z,100763.22
2022-08-30T18:39:34.576Z,100773.34
2022-08-30T18:44:37.830Z,100777.91
2022-08-30T18:49:40.555Z,100784.28
2022-08-30T18:54:52.553Z,100782.59
2022-08-30T18:59:55.754Z,100783.44
2022-08-30T19:04:59.160Z,100783.59
2022-08-30T19:10:03.531Z,100785.44
2022-08-30T19:15:10.771Z,100774.06
2022-08-30T19:20:15.553Z,100783.03
2022-08-30T19:25:20.426Z,100781.34
2022-08-30T19:30:29.312Z,100786.75
2022-08-30T19:35:32.770Z,100795.13
2022-08-30T19:40:37.101Z,100789.88
2022-08-30T19:45:39.904Z,100786.31
2022-08-30T19:50:42.765Z,100794.72
2022-08-30T19:55:48.620Z,100805.53
2022-08-30T20:00:56.086Z,100803.69
2022-08-30T20:06:10.886Z,100801.00
2022-08-30T20:11:15.750Z,100793.44
2022-08-30T20:16:18.489Z,100799.44
2022-08-30T20:21:21.272Z,100804.56
2022-08-30T20:26:31.599Z,100806.97
2022-08-30T20:31:37.212Z,100806.56
2022-08-30T20:36:40.563Z,100804.69
2022-08-30T20:41:45.230Z,100802.13
2022-08-30T20:46:49.523Z,100804.41
2022-08-30T20:51:54.506Z,100814.66
2022-08-30T20:56:58.759Z,100814.53
2022-08-30T21:02:01.664Z,100813.97
2022-08-30T21:07:05.907Z,100807.56
2022-08-30T21:12:10.547Z,100816.78
2022-08-30T21:17:13.593Z,100821.06
2022-08-30T21:22:16.306Z,100829.31
2022-08-30T21:27:21.229Z,100819.47
2022-08-30T21:32:24.119Z,100825.47
2022-08-30T21:37:27.072Z,100822.06
2022-08-30T21:42:32.135Z,100830.41
2022-08-30T21:47:35.154Z,100841.34
2022-08-30T21:52:37.870Z,100839.91
2022-08-30T21:57:42.163Z,100838.28
2022-08-30T22:02:45.132Z,100835.53
2022-08-30T22:07:51.837Z,100840.94
2022-08-30T22:12:55.985Z,100846.72
2022-08-30T22:18:00.588Z,100853.63
2022-08-30T22:23:03.904Z,100849.06
2022-08-30T22:28:07.963Z,100851.44
2022-08-30T22:33:10.833Z,100850.53
2022-08-30T22:38:14.426Z,100852.94
2022-08-30T22:43:18.961Z,100841.38
2022-08-30T22:48:21.713Z,100847.22
2022-08-30T22:53:24.676Z,100855.69
2022-08-30T22:58:28.796Z,100856.81
2022-08-30T23:03:31.540Z,100856.81
2022-08-30T23:08:34.252Z,100863.69
2022-08-30T23:13:38.544Z,100872.50
2022-08-30T23:18:41.598Z,100871.66
2022-08-30T23:24:01.982Z,100871.78
2022-08-30T23:29:23.686Z,100871.88
2022-08-30T23:34:44.113Z,100866.25
2022-08-30T23:40:04.425Z,100869.53
2022-08-30T23:45:27.240Z,100872.38
2022-08-30T23:50:47.697Z,100861.22
2022-08-30T23:56:07.903Z,100863.59
